sensor_id;sensor_type;location;lat;lon;timestamp;P1;durP1;ratioP1;P2;durP2;ratioP2
48951;SDS011;34758;42.148;24.744;2022-07-10T00:00:34;1.95;;;1.65;;
48951;SDS011;34758;42.148;24.744;2022-07-10T00:03:02;4.22;;;1.85;;
48951;SDS011;34758;42.148;24.744;2022-07-10T00:05:30;2.13;;;1.92;;
48951;SDS011;34758;42.148;24.744;2022-07-10T00:07:59;2.78;;;2.03;;
48951;SDS011;34758;42.148;24.744;2022-07-10T00:10:27;3.17;;;2.33;;
48951;SDS011;34758;42.148;24.744;2022-07-10T00:12:56;3.55;;;2.10;;
48951;SDS011;34758;42.148;24.744;2022-07-10T00:15:24;3.65;;;2.17;;
48951;SDS011;34758;42.148;24.744;2022-07-10T00:17:52;2.58;;;2.38;;
48951;SDS011;34758;42.148;24.744;2022-07-10T00:20:20;3.78;;;1.77;;
48951;SDS011;34758;42.148;24.744;2022-07-10T00:22:47;3.22;;;2.08;;
48951;SDS011;34758;42.148;24.744;2022-07-10T00:25:14;6.85;;;2.22;;
48951;SDS011;34758;42.148;24.744;2022-07-10T00:27:41;2.85;;;2.20;;
48951;SDS011;34758;42.148;24.744;2022-07-10T00:30:08;3.38;;;1.95;;
48951;SDS011;34758;42.148;24.744;2022-07-10T00:32:36;4.82;;;2.13;;
48951;SDS011;34758;42.148;24.744;2022-07-10T00:35:05;4.93;;;1.95;;
48951;SDS011;34758;42.148;24.744;2022-07-10T00:37:33;4.22;;;2.75;;
48951;SDS011;34758;42.148;24.744;2022-07-10T00:40:01;2.30;;;2.10;;
48951;SDS011;34758;42.148;24.744;2022-07-10T00:42:31;2.78;;;2.50;;
48951;SDS011;34758;42.148;24.744;2022-07-10T00:44:58;3.72;;;2.10;;
48951;SDS011;34758;42.148;24.744;2022-07-10T00:47:26;3.45;;;2.00;;
48951;SDS011;34758;42.148;24.744;2022-07-10T00:49:53;4.57;;;2.40;;
48951;SDS011;34758;42.148;24.744;2022-07-10T00:52:21;4.30;;;2.13;;
48951;SDS011;34758;42.148;24.744;2022-07-10T00:54:49;2.58;;;2.38;;
48951;SDS011;34758;42.148;24.744;2022-07-10T00:57:18;2.65;;;2.35;;
48951;SDS011;34758;42.148;24.744;2022-07-10T00:59:46;2.58;;;2.38;;
48951;SDS011;34758;42.148;24.744;2022-07-10T01:02:14;2.70;;;2.35;;
48951;SDS011;34758;42.148;24.744;2022-07-10T01:04:41;6.28;;;2.33;;
48951;SDS011;34758;42.148;24.744;2022-07-10T01:07:08;2.83;;;2.50;;
48951;SDS011;34758;42.148;24.744;2022-07-10T01:09:37;3.08;;;2.33;;
48951;SDS011;34758;42.148;24.744;2022-07-10T01:12:04;3.88;;;2.45;;
48951;SDS011;34758;42.148;24.744;2022-07-10T01:14:32;3.13;;;1.88;;
48951;SDS011;34758;42.148;24.744;2022-07-10T01:17:00;5.93;;;2.40;;
48951;SDS011;34758;42.148;24.744;2022-07-10T01:19:29;3.70;;;2.40;;
48951;SDS011;34758;42.148;24.744;2022-07-10T01:21:57;3.00;;;2.80;;
48951;SDS011;34758;42.148;24.744;2022-07-10T01:24:24;6.97;;;2.70;;
48951;SDS011;34758;42.148;24.744;2022-07-10T01:26:53;4.93;;;2.70;;
48951;SDS011;34758;42.148;24.744;2022-07-10T01:29:20;3.08;;;2.40;;
48951;SDS011;34758;42.148;24.744;2022-07-10T01:31:48;2.83;;;2.55;;
48951;SDS011;34758;42.148;24.744;2022-07-10T01:34:15;2.90;;;2.67;;
48951;SDS011;34758;42.148;24.744;2022-07-10T01:36:43;7.43;;;2.95;;
48951;SDS011;34758;42.148;24.744;2022-07-10T01:39:12;4.20;;;2.70;;
48951;SDS011;34758;42.148;24.744;2022-07-10T01:41:39;3.83;;;2.65;;
48951;SDS011;34758;42.148;24.744;2022-07-10T01:44:06;4.63;;;2.80;;
48951;SDS011;34758;42.148;24.744;2022-07-10T01:46:34;4.80;;;2.60;;
48951;SDS011;34758;42.148;24.744;2022-07-10T01:49:01;4.30;;;2.88;;
48951;SDS011;34758;42.148;24.744;2022-07-10T01:51:28;3.05;;;2.35;;
48951;SDS011;34758;42.148;24.744;2022-07-10T01:53:55;5.03;;;2.15;;
48951;SDS011;34758;42.148;24.744;2022-07-10T01:56:24;3.58;;;2.85;;
48951;SDS011;34758;42.148;24.744;2022-07-10T01:58:51;5.35;;;2.25;;
48951;SDS011;34758;42.148;24.744;2022-07-10T02:01:18;5.00;;;2.45;;
48951;SDS011;34758;42.148;24.744;2022-07-10T02:03:46;4.60;;;2.47;;
48951;SDS011;34758;42.148;24.744;2022-07-10T02:06:32;2.92;;;2.25;;
48951;SDS011;34758;42.148;24.744;2022-07-10T02:08:59;2.88;;;2.50;;
48951;SDS011;34758;42.148;24.744;2022-07-10T02:11:28;2.55;;;2.35;;
48951;SDS011;34758;42.148;24.744;2022-07-10T02:13:55;2.67;;;2.03;;
48951;SDS011;34758;42.148;24.744;2022-07-10T02:16:22;2.60;;;2.40;;
48951;SDS011;34758;42.148;24.744;2022-07-10T02:18:49;2.83;;;2.60;;
48951;SDS011;34758;42.148;24.744;2022-07-10T02:21:17;3.30;;;2.33;;
48951;SDS011;34758;42.148;24.744;2022-07-10T02:23:45;3.33;;;3.00;;
48951;SDS011;34758;42.148;24.744;2022-07-10T02:26:12;2.70;;;2.50;;
48951;SDS011;34758;42.148;24.744;2022-07-10T02:28:41;4.22;;;2.13;;
48951;SDS011;34758;42.148;24.744;2022-07-10T02:31:08;5.28;;;2.60;;
48951;SDS011;34758;42.148;24.744;2022-07-10T02:33:35;4.13;;;2.25;;
48951;SDS011;34758;42.148;24.744;2022-07-10T02:36:02;3.83;;;2.53;;
48951;SDS011;34758;42.148;24.744;2022-07-10T02:38:29;4.22;;;2.58;;
48951;SDS011;34758;42.148;24.744;2022-07-10T02:40:56;2.67;;;2.20;;
48951;SDS011;34758;42.148;24.744;2022-07-10T02:43:23;2.97;;;2.47;;
48951;SDS011;34758;42.148;24.744;2022-07-10T02:45:52;3.35;;;2.42;;
48951;SDS011;34758;42.148;24.744;2022-07-10T02:48:20;3.90;;;2.35;;
48951;SDS011;34758;42.148;24.744;2022-07-10T02:50:47;2.58;;;2.38;;
48951;SDS011;34758;42.148;24.744;2022-07-10T02:53:14;4.63;;;2.17;;
48951;SDS011;34758;42.148;24.744;2022-07-10T02:55:41;4.22;;;2.47;;
48951;SDS011;34758;42.148;24.744;2022-07-10T02:58:09;3.67;;;2.25;;
48951;SDS011;34758;42.148;24.744;2022-07-10T03:00:37;4.00;;;2.67;;
48951;SDS011;34758;42.148;24.744;2022-07-10T03:03:07;2.38;;;2.17;;
48951;SDS011;34758;42.148;24.744;2022-07-10T03:05:34;2.70;;;2.50;;
48951;SDS011;34758;42.148;24.744;2022-07-10T03:08:01;3.55;;;2.58;;
48951;SDS011;34758;42.148;24.744;2022-07-10T03:10:29;3.95;;;2.55;;
48951;SDS011;34758;42.148;24.744;2022-07-10T03:12:56;4.50;;;2.90;;
48951;SDS011;34758;42.148;24.744;2022-07-10T03:15:23;3.08;;;2.83;;
48951;SDS011;34758;42.148;24.744;2022-07-10T03:17:51;2.97;;;2.65;;
48951;SDS011;34758;42.148;24.744;2022-07-10T03:20:19;2.97;;;2.78;;
48951;SDS011;34758;42.148;24.744;2022-07-10T03:22:46;3.80;;;2.50;;
48951;SDS011;34758;42.148;24.744;2022-07-10T03:25:13;5.55;;;2.65;;
48951;SDS011;34758;42.148;24.744;2022-07-10T03:27:41;3.70;;;2.88;;
48951;SDS011;34758;42.148;24.744;2022-07-10T03:30:09;4.80;;;3.30;;
48951;SDS011;34758;42.148;24.744;2022-07-10T03:32:37;3.33;;;3.03;;
48951;SDS011;34758;42.148;24.744;2022-07-10T03:35:04;3.50;;;3.20;;
48951;SDS011;34758;42.148;24.744;2022-07-10T03:37:32;3.83;;;2.70;;
48951;SDS011;34758;42.148;24.744;2022-07-10T03:40:00;3.55;;;3.20;;
48951;SDS011;34758;42.148;24.744;2022-07-10T03:42:27;3.92;;;3.05;;
48951;SDS011;34758;42.148;24.744;2022-07-10T03:44:54;4.00;;;3.15;;
48951;SDS011;34758;42.148;24.744;2022-07-10T03:47:21;4.53;;;3.53;;
48951;SDS011;34758;42.148;24.744;2022-07-10T03:49:48;3.83;;;2.70;;
48951;SDS011;34758;42.148;24.744;2022-07-10T03:52:15;4.50;;;3.03;;
48951;SDS011;34758;42.148;24.744;2022-07-10T03:54:43;3.90;;;3.60;;
48951;SDS011;34758;42.148;24.744;2022-07-10T03:57:10;3.70;;;3.40;;
48951;SDS011;34758;42.148;24.744;2022-07-10T03:59:55;5.63;;;3.40;;
48951;SDS011;34758;42.148;24.744;2022-07-10T04:02:22;4.25;;;3.85;;
48951;SDS011;34758;42.148;24.744;2022-07-10T04:04:49;4.18;;;3.65;;
48951;SDS011;34758;42.148;24.744;2022-07-10T04:07:16;3.50;;;2.72;;
48951;SDS011;34758;42.148;24.744;2022-07-10T04:09:45;3.08;;;2.80;;
48951;SDS011;34758;42.148;24.744;2022-07-10T04:12:12;5.38;;;3.00;;
48951;SDS011;34758;42.148;24.744;2022-07-10T04:14:39;3.72;;;3.40;;
48951;SDS011;34758;42.148;24.744;2022-07-10T04:17:07;3.63;;;3.33;;
48951;SDS011;34758;42.148;24.744;2022-07-10T04:19:34;3.70;;;3.40;;
48951;SDS011;34758;42.148;24.744;2022-07-10T04:22:01;4.45;;;3.67;;
48951;SDS011;34758;42.148;24.744;2022-07-10T04:24:29;3.15;;;2.85;;
48951;SDS011;34758;42.148;24.744;2022-07-10T04:26:57;4.43;;;3.40;;
48951;SDS011;34758;42.148;24.744;2022-07-10T04:29:25;4.35;;;3.13;;
48951;SDS011;34758;42.148;24.744;2022-07-10T04:31:53;3.45;;;2.97;;
48951;SDS011;34758;42.148;24.744;2022-07-10T04:34:20;4.30;;;2.97;;
48951;SDS011;34758;42.148;24.744;2022-07-10T04:36:47;4.47;;;2.83;;
48951;SDS011;34758;42.148;24.744;2022-07-10T04:39:14;3.88;;;3.00;;
48951;SDS011;34758;42.148;24.744;2022-07-10T04:41:42;3.22;;;2.70;;
48951;SDS011;34758;42.148;24.744;2022-07-10T04:44:11;3.90;;;2.90;;
48951;SDS011;34758;42.148;24.744;2022-07-10T04:46:39;3.88;;;2.55;;
48951;SDS011;34758;42.148;24.744;2022-07-10T04:49:06;3.05;;;2.78;;
48951;SDS011;34758;42.148;24.744;2022-07-10T04:51:33;2.95;;;2.42;;
48951;SDS011;34758;42.148;24.744;2022-07-10T04:54:01;3.13;;;2.70;;
48951;SDS011;34758;42.148;24.744;2022-07-10T04:56:29;3.60;;;3.00;;
48951;SDS011;34758;42.148;24.744;2022-07-10T04:58:57;3.85;;;2.60;;
48951;SDS011;34758;42.148;24.744;2022-07-10T05:01:25;3.28;;;2.97;;
48951;SDS011;34758;42.148;24.744;2022-07-10T05:03:52;3.53;;;2.88;;
48951;SDS011;34758;42.148;24.744;2022-07-10T05:06:19;3.63;;;2.80;;
48951;SDS011;34758;42.148;24.744;2022-07-10T05:08:47;3.08;;;2.88;;
48951;SDS011;34758;42.148;24.744;2022-07-10T05:11:14;6.57;;;3.25;;
48951;SDS011;34758;42.148;24.744;2022-07-10T05:13:42;3.22;;;2.63;;
48951;SDS011;34758;42.148;24.744;2022-07-10T05:16:11;3.22;;;2.92;;
48951;SDS011;34758;42.148;24.744;2022-07-10T05:18:41;3.45;;;3.10;;
48951;SDS011;34758;42.148;24.744;2022-07-10T05:21:08;6.18;;;3.28;;
48951;SDS011;34758;42.148;24.744;2022-07-10T05:23:36;5.50;;;3.30;;
48951;SDS011;34758;42.148;24.744;2022-07-10T05:26:05;3.58;;;3.28;;
48951;SDS011;34758;42.148;24.744;2022-07-10T05:28:32;4.85;;;2.97;;
48951;SDS011;34758;42.148;24.744;2022-07-10T05:31:02;4.25;;;3.72;;
48951;SDS011;34758;42.148;24.744;2022-07-10T05:33:30;4.85;;;3.50;;
48951;SDS011;34758;42.148;24.744;2022-07-10T05:35:59;4.03;;;3.63;;
48951;SDS011;34758;42.148;24.744;2022-07-10T05:38:26;6.22;;;4.00;;
48951;SDS011;34758;42.148;24.744;2022-07-10T05:40:53;4.72;;;3.30;;
48951;SDS011;34758;42.148;24.744;2022-07-10T05:43:21;3.92;;;3.60;;
48951;SDS011;34758;42.148;24.744;2022-07-10T05:45:48;3.35;;;3.05;;
48951;SDS011;34758;42.148;24.744;2022-07-10T05:48:15;3.92;;;3.38;;
48951;SDS011;34758;42.148;24.744;2022-07-10T05:50:42;3.75;;;3.45;;
48951;SDS011;34758;42.148;24.744;2022-07-10T05:53:10;3.60;;;3.30;;
48951;SDS011;34758;42.148;24.744;2022-07-10T05:55:38;3.92;;;3.45;;
48951;SDS011;34758;42.148;24.744;2022-07-10T05:58:05;4.15;;;3.58;;
48951;SDS011;34758;42.148;24.744;2022-07-10T06:00:32;4.78;;;3.40;;
48951;SDS011;34758;42.148;24.744;2022-07-10T06:02:59;4.80;;;3.28;;
48951;SDS011;34758;42.148;24.744;2022-07-10T06:05:26;3.03;;;2.83;;
48951;SDS011;34758;42.148;24.744;2022-07-10T06:07:53;6.13;;;3.42;;
48951;SDS011;34758;42.148;24.744;2022-07-10T06:10:22;3.78;;;3.47;;
48951;SDS011;34758;42.148;24.744;2022-07-10T06:12:49;4.05;;;3.20;;
48951;SDS011;34758;42.148;24.744;2022-07-10T06:15:16;3.47;;;3.20;;
48951;SDS011;34758;42.148;24.744;2022-07-10T06:17:44;3.60;;;3.30;;
48951;SDS011;34758;42.148;24.744;2022-07-10T06:20:11;4.13;;;3.10;;
48951;SDS011;34758;42.148;24.744;2022-07-10T06:22:38;4.13;;;3.50;;
48951;SDS011;34758;42.148;24.744;2022-07-10T06:25:06;5.35;;;3.70;;
48951;SDS011;34758;42.148;24.744;2022-07-10T06:27:37;4.07;;;2.90;;
48951;SDS011;34758;42.148;24.744;2022-07-10T06:30:05;3.75;;;3.40;;
48951;SDS011;34758;42.148;24.744;2022-07-10T06:32:32;4.20;;;3.63;;
48951;SDS011;34758;42.148;24.744;2022-07-10T06:34:59;3.90;;;3.55;;
48951;SDS011;34758;42.148;24.744;2022-07-10T06:37:27;3.90;;;2.90;;
48951;SDS011;34758;42.148;24.744;2022-07-10T06:39:54;3.75;;;3.20;;
48951;SDS011;34758;42.148;24.744;2022-07-10T06:42:21;3.72;;;3.17;;
48951;SDS011;34758;42.148;24.744;2022-07-10T06:44:49;3.88;;;3.40;;
48951;SDS011;34758;42.148;24.744;2022-07-10T06:47:18;3.75;;;3.35;;
48951;SDS011;34758;42.148;24.744;2022-07-10T06:50:03;3.70;;;3.35;;
48951;SDS011;34758;42.148;24.744;2022-07-10T06:52:31;3.80;;;3.35;;
48951;SDS011;34758;42.148;24.744;2022-07-10T06:54:58;5.07;;;3.33;;
48951;SDS011;34758;42.148;24.744;2022-07-10T06:57:26;4.82;;;3.38;;
48951;SDS011;34758;42.148;24.744;2022-07-10T06:59:55;3.40;;;3.10;;
48951;SDS011;34758;42.148;24.744;2022-07-10T07:02:23;3.42;;;3.13;;
48951;SDS011;34758;42.148;24.744;2022-07-10T07:04:50;3.42;;;2.83;;
48951;SDS011;34758;42.148;24.744;2022-07-10T07:07:17;4.15;;;2.90;;
48951;SDS011;34758;42.148;24.744;2022-07-10T07:09:45;4.43;;;2.88;;
48951;SDS011;34758;42.148;24.744;2022-07-10T07:12:15;3.70;;;3.40;;
48951;SDS011;34758;42.148;24.744;2022-07-10T07:14:43;5.10;;;3.20;;
48951;SDS011;34758;42.148;24.744;2022-07-10T07:17:11;3.10;;;2.90;;
48951;SDS011;34758;42.148;24.744;2022-07-10T07:19:40;3.72;;;3.30;;
48951;SDS011;34758;42.148;24.744;2022-07-10T07:22:25;3.75;;;3.40;;
48951;SDS011;34758;42.148;24.744;2022-07-10T07:25:10;3.67;;;2.90;;
48951;SDS011;34758;42.148;24.744;2022-07-10T07:27:38;3.20;;;2.95;;
48951;SDS011;34758;42.148;24.744;2022-07-10T07:30:05;3.55;;;3.25;;
48951;SDS011;34758;42.148;24.744;2022-07-10T07:32:37;4.63;;;4.23;;
48951;SDS011;34758;42.148;24.744;2022-07-10T07:35:05;3.50;;;3.05;;
48951;SDS011;34758;42.148;24.744;2022-07-10T07:37:36;3.28;;;3.05;;
48951;SDS011;34758;42.148;24.744;2022-07-10T07:40:04;3.50;;;3.20;;
48951;SDS011;34758;42.148;24.744;2022-07-10T07:42:33;6.13;;;3.90;;
48951;SDS011;34758;42.148;24.744;2022-07-10T07:45:00;3.92;;;3.50;;
48951;SDS011;34758;42.148;24.744;2022-07-10T07:47:27;4.07;;;3.63;;
48951;SDS011;34758;42.148;24.744;2022-07-10T07:50:01;4.97;;;3.72;;
48951;SDS011;34758;42.148;24.744;2022-07-10T07:52:28;3.53;;;3.20;;
48951;SDS011;34758;42.148;24.744;2022-07-10T07:54:56;10.32;;;3.90;;
48951;SDS011;34758;42.148;24.744;2022-07-10T07:57:23;3.70;;;3.40;;
48951;SDS011;34758;42.148;24.744;2022-07-10T07:59:50;5.35;;;3.08;;
48951;SDS011;34758;42.148;24.744;2022-07-10T08:02:17;4.18;;;3.50;;
48951;SDS011;34758;42.148;24.744;2022-07-10T08:04:44;4.88;;;3.10;;
48951;SDS011;34758;42.148;24.744;2022-07-10T08:07:13;5.40;;;4.72;;
48951;SDS011;34758;42.148;24.744;2022-07-10T08:09:42;3.53;;;3.15;;
48951;SDS011;34758;42.148;24.744;2022-07-10T08:12:10;4.03;;;3.60;;
48951;SDS011;34758;42.148;24.744;2022-07-10T08:14:37;4.55;;;3.75;;
48951;SDS011;34758;42.148;24.744;2022-07-10T08:17:05;3.20;;;3.00;;
48951;SDS011;34758;42.148;24.744;2022-07-10T08:19:32;5.22;;;3.30;;
48951;SDS011;34758;42.148;24.744;2022-07-10T08:21:59;4.45;;;3.60;;
48951;SDS011;34758;42.148;24.744;2022-07-10T08:24:29;3.70;;;3.40;;
48951;SDS011;34758;42.148;24.744;2022-07-10T08:26:57;3.70;;;3.40;;
48951;SDS011;34758;42.148;24.744;2022-07-10T08:29:24;5.15;;;3.25;;
48951;SDS011;34758;42.148;24.744;2022-07-10T08:31:51;3.30;;;3.10;;
48951;SDS011;34758;42.148;24.744;2022-07-10T08:34:18;4.72;;;3.08;;
48951;SDS011;34758;42.148;24.744;2022-07-10T08:36:45;4.10;;;3.40;;
48951;SDS011;34758;42.148;24.744;2022-07-10T08:39:12;3.45;;;2.85;;
48951;SDS011;34758;42.148;24.744;2022-07-10T08:41:42;5.10;;;3.20;;
48951;SDS011;34758;42.148;24.744;2022-07-10T08:44:12;3.30;;;3.08;;
48951;SDS011;34758;42.148;24.744;2022-07-10T08:46:39;4.20;;;2.47;;
48951;SDS011;34758;42.148;24.744;2022-07-10T08:49:08;4.20;;;2.95;;
48951;SDS011;34758;42.148;24.744;2022-07-10T08:51:37;3.85;;;3.25;;
48951;SDS011;34758;42.148;24.744;2022-07-10T08:54:07;4.68;;;3.65;;
48951;SDS011;34758;42.148;24.744;2022-07-10T08:56:34;3.80;;;3.50;;
48951;SDS011;34758;42.148;24.744;2022-07-10T08:59:06;3.92;;;3.25;;
48951;SDS011;34758;42.148;24.744;2022-07-10T09:01:34;3.60;;;3.30;;
48951;SDS011;34758;42.148;24.744;2022-07-10T09:04:01;5.25;;;3.50;;
48951;SDS011;34758;42.148;24.744;2022-07-10T09:06:29;3.40;;;3.10;;
48951;SDS011;34758;42.148;24.744;2022-07-10T09:08:57;5.60;;;3.88;;
48951;SDS011;34758;42.148;24.744;2022-07-10T09:11:26;5.63;;;3.65;;
48951;SDS011;34758;42.148;24.744;2022-07-10T09:13:55;4.00;;;3.70;;
48951;SDS011;34758;42.148;24.744;2022-07-10T09:16:25;3.70;;;3.40;;
48951;SDS011;34758;42.148;24.744;2022-07-10T09:18:53;4.22;;;3.85;;
48951;SDS011;34758;42.148;24.744;2022-07-10T09:21:20;4.40;;;3.97;;
48951;SDS011;34758;42.148;24.744;2022-07-10T09:23:47;4.28;;;3.88;;
48951;SDS011;34758;42.148;24.744;2022-07-10T09:26:15;4.20;;;3.90;;
48951;SDS011;34758;42.148;24.744;2022-07-10T09:28:43;4.68;;;4.07;;
48951;SDS011;34758;42.148;24.744;2022-07-10T09:31:10;5.70;;;3.80;;
48951;SDS011;34758;42.148;24.744;2022-07-10T09:33:39;3.88;;;3.58;;
48951;SDS011;34758;42.148;24.744;2022-07-10T09:36:08;4.05;;;3.70;;
48951;SDS011;34758;42.148;24.744;2022-07-10T09:38:52;4.15;;;3.85;;
48951;SDS011;34758;42.148;24.744;2022-07-10T09:41:23;4.22;;;3.88;;
48951;SDS011;34758;42.148;24.744;2022-07-10T09:43:51;3.90;;;3.60;;
48951;SDS011;34758;42.148;24.744;2022-07-10T09:46:22;3.90;;;3.60;;
48951;SDS011;34758;42.148;24.744;2022-07-10T09:49:01;4.35;;;3.92;;
48951;SDS011;34758;42.148;24.744;2022-07-10T09:51:30;5.30;;;4.25;;
48951;SDS011;34758;42.148;24.744;2022-07-10T09:53:59;6.18;;;4.00;;
48951;SDS011;34758;42.148;24.744;2022-07-10T09:56:33;4.23;;;3.87;;
48951;SDS011;34758;42.148;24.744;2022-07-10T09:59:06;4.93;;;3.90;;
48951;SDS011;34758;42.148;24.744;2022-07-10T10:01:35;5.40;;;3.38;;
48951;SDS011;34758;42.148;24.744;2022-07-10T10:04:04;5.50;;;4.13;;
48951;SDS011;34758;42.148;24.744;2022-07-10T10:06:33;3.55;;;3.25;;
48951;SDS011;34758;42.148;24.744;2022-07-10T10:09:03;5.60;;;3.25;;
48951;SDS011;34758;42.148;24.744;2022-07-10T10:11:31;5.70;;;4.03;;
48951;SDS011;34758;42.148;24.744;2022-07-10T10:14:00;3.53;;;3.22;;
48951;SDS011;34758;42.148;24.744;2022-07-10T10:16:29;5.13;;;3.13;;
48951;SDS011;34758;42.148;24.744;2022-07-10T10:18:56;4.28;;;3.72;;
48951;SDS011;34758;42.148;24.744;2022-07-10T10:21:43;2.70;;;2.50;;
48951;SDS011;34758;42.148;24.744;2022-07-10T10:24:11;3.30;;;3.00;;
48951;SDS011;34758;42.148;24.744;2022-07-10T10:26:39;4.32;;;3.92;;
48951;SDS011;34758;42.148;24.744;2022-07-10T10:29:06;3.92;;;3.40;;
48951;SDS011;34758;42.148;24.744;2022-07-10T10:31:35;4.00;;;3.70;;
48951;SDS011;34758;42.148;24.744;2022-07-10T10:34:02;4.10;;;3.70;;
48951;SDS011;34758;42.148;24.744;2022-07-10T10:36:45;3.47;;;3.13;;
48951;SDS011;34758;42.148;24.744;2022-07-10T10:39:16;3.53;;;3.22;;
48951;SDS011;34758;42.148;24.744;2022-07-10T10:41:48;4.40;;;2.95;;
48951;SDS011;34758;42.148;24.744;2022-07-10T10:44:19;4.78;;;3.30;;
48951;SDS011;34758;42.148;24.744;2022-07-10T10:46:57;3.50;;;3.20;;
48951;SDS011;34758;42.148;24.744;2022-07-10T10:52:20;3.03;;;2.72;;
48951;SDS011;34758;42.148;24.744;2022-07-10T10:55:02;2.95;;;2.63;;
48951;SDS011;34758;42.148;24.744;2022-07-10T10:57:40;3.35;;;3.15;;
48951;SDS011;34758;42.148;24.744;2022-07-10T11:00:14;3.50;;;3.20;;
48951;SDS011;34758;42.148;24.744;2022-07-10T11:02:42;3.30;;;3.10;;
48951;SDS011;34758;42.148;24.744;2022-07-10T11:08:13;3.53;;;2.67;;
48951;SDS011;34758;42.148;24.744;2022-07-10T11:10:42;2.63;;;2.42;;
48951;SDS011;34758;42.148;24.744;2022-07-10T11:13:10;3.38;;;2.75;;
48951;SDS011;34758;42.148;24.744;2022-07-10T11:15:38;3.15;;;2.55;;
48951;SDS011;34758;42.148;24.744;2022-07-10T11:18:08;3.10;;;2.65;;
48951;SDS011;34758;42.148;24.744;2022-07-10T11:20:37;3.03;;;2.70;;
48951;SDS011;34758;42.148;24.744;2022-07-10T11:23:09;3.75;;;2.60;;
48951;SDS011;34758;42.148;24.744;2022-07-10T11:25:45;3.28;;;3.00;;
48951;SDS011;34758;42.148;24.744;2022-07-10T11:28:28;3.00;;;2.58;;
48951;SDS011;34758;42.148;24.744;2022-07-10T11:31:01;2.70;;;2.50;;
48951;SDS011;34758;42.148;24.744;2022-07-10T11:33:29;2.35;;;2.17;;
48951;SDS011;34758;42.148;24.744;2022-07-10T11:36:09;3.47;;;2.30;;
48951;SDS011;34758;42.148;24.744;2022-07-10T11:38:40;3.22;;;2.70;;
48951;SDS011;34758;42.148;24.744;2022-07-10T11:41:16;3.10;;;2.63;;
48951;SDS011;34758;42.148;24.744;2022-07-10T11:43:47;3.60;;;2.50;;
48951;SDS011;34758;42.148;24.744;2022-07-10T11:46:16;2.53;;;2.30;;
48951;SDS011;34758;42.148;24.744;2022-07-10T11:48:44;3.00;;;2.70;;
48951;SDS011;34758;42.148;24.744;2022-07-10T11:54:02;2.50;;;2.30;;
48951;SDS011;34758;42.148;24.744;2022-07-10T11:56:30;2.00;;;1.90;;
48951;SDS011;34758;42.148;24.744;2022-07-10T11:58:59;2.90;;;2.70;;
48951;SDS011;34758;42.148;24.744;2022-07-10T12:01:28;2.63;;;2.40;;
48951;SDS011;34758;42.148;24.744;2022-07-10T12:03:57;2.65;;;2.47;;
48951;SDS011;34758;42.148;24.744;2022-07-10T12:06:26;2.50;;;2.30;;
48951;SDS011;34758;42.148;24.744;2022-07-10T12:08:54;2.50;;;2.30;;
48951;SDS011;34758;42.148;24.744;2022-07-10T12:11:22;3.47;;;2.50;;
48951;SDS011;34758;42.148;24.744;2022-07-10T12:13:50;2.30;;;2.10;;
48951;SDS011;34758;42.148;24.744;2022-07-10T12:16:19;3.17;;;2.30;;
48951;SDS011;34758;42.148;24.744;2022-07-10T12:18:47;3.65;;;2.70;;
48951;SDS011;34758;42.148;24.744;2022-07-10T12:21:14;2.85;;;2.65;;
48951;SDS011;34758;42.148;24.744;2022-07-10T12:23:43;3.17;;;2.35;;
48951;SDS011;34758;42.148;24.744;2022-07-10T12:26:11;3.80;;;3.47;;
48951;SDS011;34758;42.148;24.744;2022-07-10T12:28:51;3.20;;;2.90;;
48951;SDS011;34758;42.148;24.744;2022-07-10T12:31:24;5.68;;;2.72;;
48951;SDS011;34758;42.148;24.744;2022-07-10T12:33:54;2.90;;;2.38;;
48951;SDS011;34758;42.148;24.744;2022-07-10T12:36:23;2.80;;;2.60;;
48951;SDS011;34758;42.148;24.744;2022-07-10T12:38:55;2.75;;;2.55;;
48951;SDS011;34758;42.148;24.744;2022-07-10T12:41:23;3.08;;;2.78;;
48951;SDS011;34758;42.148;24.744;2022-07-10T12:43:53;3.25;;;2.72;;
48951;SDS011;34758;42.148;24.744;2022-07-10T12:46:20;4.18;;;2.55;;
48951;SDS011;34758;42.148;24.744;2022-07-10T12:49:00;4.90;;;2.88;;
48951;SDS011;34758;42.148;24.744;2022-07-10T12:51:29;2.50;;;2.30;;
48951;SDS011;34758;42.148;24.744;2022-07-10T12:53:56;3.60;;;3.40;;
48951;SDS011;34758;42.148;24.744;2022-07-10T12:56:31;3.58;;;2.80;;
48951;SDS011;34758;42.148;24.744;2022-07-10T12:59:02;3.05;;;2.85;;
48951;SDS011;34758;42.148;24.744;2022-07-10T13:01:41;3.72;;;3.42;;
48951;SDS011;34758;42.148;24.744;2022-07-10T13:04:10;2.88;;;2.67;;
48951;SDS011;34758;42.148;24.744;2022-07-10T13:06:38;2.85;;;2.63;;
48951;SDS011;34758;42.148;24.744;2022-07-10T13:09:19;4.90;;;2.70;;
48951;SDS011;34758;42.148;24.744;2022-07-10T13:11:47;2.58;;;2.33;;
48951;SDS011;34758;42.148;24.744;2022-07-10T13:14:15;2.22;;;2.13;;
48951;SDS011;34758;42.148;24.744;2022-07-10T13:16:43;3.33;;;2.20;;
48951;SDS011;34758;42.148;24.744;2022-07-10T13:19:10;2.70;;;2.50;;
48951;SDS011;34758;42.148;24.744;2022-07-10T13:21:37;2.58;;;2.38;;
48951;SDS011;34758;42.148;24.744;2022-07-10T13:24:04;2.80;;;2.53;;
48951;SDS011;34758;42.148;24.744;2022-07-10T13:26:33;2.65;;;2.45;;
48951;SDS011;34758;42.148;24.744;2022-07-10T13:29:00;3.10;;;2.58;;
48951;SDS011;34758;42.148;24.744;2022-07-10T13:31:32;2.80;;;2.28;;
48951;SDS011;34758;42.148;24.744;2022-07-10T13:33:59;2.25;;;2.13;;
48951;SDS011;34758;42.148;24.744;2022-07-10T13:36:26;2.28;;;2.10;;
48951;SDS011;34758;42.148;24.744;2022-07-10T13:38:53;2.83;;;2.55;;
48951;SDS011;34758;42.148;24.744;2022-07-10T13:41:20;2.45;;;2.25;;
48951;SDS011;34758;42.148;24.744;2022-07-10T13:43:47;2.78;;;2.30;;
48951;SDS011;34758;42.148;24.744;2022-07-10T13:46:14;3.67;;;2.22;;
48951;SDS011;34758;42.148;24.744;2022-07-10T13:48:44;2.50;;;2.10;;
48951;SDS011;34758;42.148;24.744;2022-07-10T13:51:11;2.10;;;2.00;;
48951;SDS011;34758;42.148;24.744;2022-07-10T13:53:38;2.60;;;2.28;;
48951;SDS011;34758;42.148;24.744;2022-07-10T13:56:06;2.70;;;2.30;;
48951;SDS011;34758;42.148;24.744;2022-07-10T13:58:34;1.95;;;1.85;;
48951;SDS011;34758;42.148;24.744;2022-07-10T14:01:04;2.03;;;1.92;;
48951;SDS011;34758;42.148;24.744;2022-07-10T14:03:31;3.28;;;2.58;;
48951;SDS011;34758;42.148;24.744;2022-07-10T14:06:00;2.60;;;2.45;;
48951;SDS011;34758;42.148;24.744;2022-07-10T14:08:28;2.10;;;1.95;;
48951;SDS011;34758;42.148;24.744;2022-07-10T14:10:55;2.33;;;2.22;;
48951;SDS011;34758;42.148;24.744;2022-07-10T14:13:22;2.70;;;2.53;;
48951;SDS011;34758;42.148;24.744;2022-07-10T14:15:49;3.15;;;2.60;;
48951;SDS011;34758;42.148;24.744;2022-07-10T14:18:16;3.17;;;2.60;;
48951;SDS011;34758;42.148;24.744;2022-07-10T14:20:58;2.45;;;2.25;;
48951;SDS011;34758;42.148;24.744;2022-07-10T14:23:31;2.03;;;1.92;;
48951;SDS011;34758;42.148;24.744;2022-07-10T14:25:58;2.70;;;2.50;;
48951;SDS011;34758;42.148;24.744;2022-07-10T14:28:26;2.75;;;2.50;;
48951;SDS011;34758;42.148;24.744;2022-07-10T14:30:54;2.50;;;2.30;;
48951;SDS011;34758;42.148;24.744;2022-07-10T14:33:23;2.70;;;2.50;;
48951;SDS011;34758;42.148;24.744;2022-07-10T14:35:50;2.80;;;2.60;;
48951;SDS011;34758;42.148;24.744;2022-07-10T14:38:19;4.13;;;3.05;;
48951;SDS011;34758;42.148;24.744;2022-07-10T14:40:46;2.67;;;2.47;;
48951;SDS011;34758;42.148;24.744;2022-07-10T14:43:13;5.05;;;2.60;;
48951;SDS011;34758;42.148;24.744;2022-07-10T14:45:40;4.90;;;3.03;;
48951;SDS011;34758;42.148;24.744;2022-07-10T14:48:08;3.75;;;2.92;;
48951;SDS011;34758;42.148;24.744;2022-07-10T14:50:36;2.75;;;2.53;;